Time;durP1;ratioP1;P1;durP2;ratioP2;P2;SDS_P1;SDS_P2;PMS_P1;PMS_P2;Temp;Humidity;BMP_temperature;BMP_pressure;BME280_temperature;BME280_humidity;BME280_pressure;Samples;Min_cycle;Max_cycle;Signal;HPM_P1;HPM_P2
2022/12/13 00:01:54;;;;;;;;;44.50;41.25;;;;;;;;5059939;28;46335;-75
2022/12/13 00:04:21;;;;;;;;;49.50;40.75;;;;;;;;5059029;28;45293;-75
2022/12/13 00:06:47;;;;;;;;;47.50;41.00;;;;;;;;5060064;28;45391;-75
2022/12/13 00:09:13;;;;;;;;;38.50;36.25;;;;;;;;5059640;28;45521;-75
2022/12/13 00:11:38;;;;;;;;;39.00;37.25;;;;;;;;5059649;28;48454;-75
2022/12/13 00:14:03;;;;;;;;;47.50;38.25;;;;;;;;5058478;28;45315;-75
2022/12/13 00:16:29;;;;;;;;;45.00;38.75;;;;;;;;5058642;28;45351;-76
2022/12/13 00:18:55;;;;;;;;;49.50;43.50;;;;;;;;5059748;28;45299;-76
2022/12/13 00:21:21;;;;;;;;;39.50;37.50;;;;;;;;5058411;28;45188;-76
2022/12/13 00:23:47;;;;;;;;;42.00;34.75;;;;;;;;5059861;28;45321;-75
2022/12/13 00:26:14;;;;;;;;;35.50;34.00;;;;;;;;5058239;28;45272;-75
2022/12/13 00:28:39;;;;;;;;;50.75;44.00;;;;;;;;5058125;28;47460;-75
2022/12/13 00:31:05;;;;;;;;;49.75;41.75;;;;;;;;5059636;28;45605;-75
2022/12/13 00:33:30;;;;;;;;;43.50;40.75;;;;;;;;5059402;28;45310;-75
2022/12/13 00:35:55;;;;;;;;;48.00;43.25;;;;;;;;5058241;28;45574;-75
2022/12/13 00:38:21;;;;;;;;;39.25;34.50;;;;;;;;5058734;28;45488;-75
2022/12/13 00:40:46;;;;;;;;;49.00;41.50;;;;;;;;5059449;28;45381;-74
2022/12/13 00:43:12;;;;;;;;;40.75;37.75;;;;;;;;5059235;28;45358;-75
2022/12/13 00:45:37;;;;;;;;;32.00;27.00;;;;;;;;5059854;28;45338;-75
2022/12/13 00:48:03;;;;;;;;;39.25;36.75;;;;;;;;5057946;28;45712;-76
2022/12/13 00:50:29;;;;;;;;;42.75;38.00;;;;;;;;5061302;28;45482;-75
2022/12/13 00:52:54;;;;;;;;;41.75;35.00;;;;;;;;5062710;28;45440;-75
2022/12/13 00:55:19;;;;;;;;;34.50;34.00;;;;;;;;5062567;28;45560;-75
2022/12/13 00:57:44;;;;;;;;;36.75;35.25;;;;;;;;5061196;28;45756;-75
2022/12/13 01:00:10;;;;;;;;;38.25;32.75;;;;;;;;5062384;28;45246;-75
2022/12/13 01:02:35;;;;;;;;;38.00;36.75;;;;;;;;5062543;28;45224;-75
2022/12/13 01:05:00;;;;;;;;;41.25;36.25;;;;;;;;5061114;28;45348;-75
2022/12/13 01:07:25;;;;;;;;;34.50;33.50;;;;;;;;5060167;28;46105;-76
2022/12/13 01:09:51;;;;;;;;;42.00;37.25;;;;;;;;5061425;28;46345;-75
2022/12/13 01:12:16;;;;;;;;;34.25;31.00;;;;;;;;5061138;28;45405;-75
2022/12/13 01:14:41;;;;;;;;;32.75;31.00;;;;;;;;5060378;28;45241;-75
2022/12/13 01:17:06;;;;;;;;;27.50;26.25;;;;;;;;5061746;28;45499;-75
2022/12/13 01:19:32;;;;;;;;;33.50;28.75;;;;;;;;5061700;28;45315;-75
2022/12/13 01:21:58;;;;;;;;;35.00;32.00;;;;;;;;5062150;28;45194;-76
2022/12/13 01:24:24;;;;;;;;;39.25;36.25;;;;;;;;5062235;28;45256;-75
2022/12/13 01:26:50;;;;;;;;;35.00;34.25;;;;;;;;5061387;28;45315;-74
2022/12/13 01:29:15;;;;;;;;;31.00;26.75;;;;;;;;5061404;28;46313;-75
2022/12/13 01:31:41;;;;;;;;;35.75;31.00;;;;;;;;5059888;28;45392;-75
2022/12/13 01:34:11;;;;;;;;;33.00;29.50;;;;;;;;5061499;28;45451;-75
2022/12/13 01:36:38;;;;;;;;;33.50;29.25;;;;;;;;5061125;28;45336;-76
2022/12/13 01:39:03;;;;;;;;;39.50;34.00;;;;;;;;5060799;28;45330;-75
2022/12/13 01:41:28;;;;;;;;;39.50;29.50;;;;;;;;5060709;28;45285;-75
2022/12/13 01:43:59;;;;;;;;;33.00;29.75;;;;;;;;5061525;28;45351;-76
2022/12/13 01:46:25;;;;;;;;;30.50;27.25;;;;;;;;5060694;28;45461;-75
2022/12/13 01:49:00;;;;;;;;;36.00;29.75;;;;;;;;5059483;28;46029;-75
2022/12/13 01:51:28;;;;;;;;;39.50;36.00;;;;;;;;5059435;28;45288;-75
2022/12/13 01:53:58;;;;;;;;;32.00;28.75;;;;;;;;5060804;28;45370;-75
2022/12/13 01:56:27;;;;;;;;;30.50;30.00;;;;;;;;5058936;28;46060;-75
2022/12/13 01:58:54;;;;;;;;;28.00;25.50;;;;;;;;5060393;28;45641;-75
2022/12/13 02:01:20;;;;;;;;;26.50;24.75;;;;;;;;5059060;28;45913;-75
2022/12/13 02:03:45;;;;;;;;;28.00;23.50;;;;;;;;5060840;28;45247;-75
2022/12/13 02:06:16;;;;;;;;;30.00;23.75;;;;;;;;5060425;28;45296;-75
2022/12/13 02:08:41;;;;;;;;;28.25;23.00;;;;;;;;5058852;28;46978;-75
2022/12/13 02:11:08;;;;;;;;;32.50;28.75;;;;;;;;5060530;28;45250;-75
2022/12/13 02:13:33;;;;;;;;;19.00;18.00;;;;;;;;5060175;28;45320;-75
2022/12/13 02:16:11;;;;;;;;;31.00;28.50;;;;;;;;5058871;28;46131;-75
2022/12/13 02:19:02;;;;;;;;;26.50;24.75;;;;;;;;5059856;28;45423;-75
2022/12/13 02:21:33;;;;;;;;;37.50;31.75;;;;;;;;5044732;28;45296;-75
2022/12/13 02:24:08;;;;;;;;;32.00;27.00;;;;;;;;5058771;28;45424;-76
2022/12/13 02:26:43;;;;;;;;;29.75;27.00;;;;;;;;5059793;28;45508;-76
2022/12/13 02:29:20;;;;;;;;;27.50;25.00;;;;;;;;5058649;28;46998;-74
2022/12/13 02:32:11;;;;;;;;;31.50;30.75;;;;;;;;5058865;28;45414;-75
2022/12/13 02:35:03;;;;;;;;;25.25;22.50;;;;;;;;5060033;28;45343;-75
2022/12/13 02:37:46;;;;;;;;;29.00;25.50;;;;;;;;5058601;28;45295;-75
2022/12/13 02:40:18;;;;;;;;;24.75;22.50;;;;;;;;5058236;28;47309;-75
2022/12/13 02:42:49;;;;;;;;;28.25;24.75;;;;;;;;5059710;28;45380;-75
2022/12/13 02:45:18;;;;;;;;;24.75;22.00;;;;;;;;5059951;28;45511;-75
2022/12/13 02:47:44;;;;;;;;;28.75;24.00;;;;;;;;5059643;28;45229;-75
2022/12/13 02:50:10;;;;;;;;;24.00;23.00;;;;;;;;5059536;28;45953;-75
2022/12/13 02:52:37;;;;;;;;;25.25;23.50;;;;;;;;5060038;28;45375;-75
2022/12/13 02:55:07;;;;;;;;;31.75;28.00;;;;;;;;5059561;28;45221;-75
2022/12/13 02:57:33;;;;;;;;;26.25;25.75;;;;;;;;5058177;28;47691;-74
2022/12/13 03:00:03;;;;;;;;;30.25;24.75;;;;;;;;5059358;28;45266;-75
2022/12/13 03:02:35;;;;;;;;;27.75;24.00;;;;;;;;5059718;28;45319;-75
2022/12/13 03:08:24;;;;;;;;;23.25;22.00;;;;;;;;5036740;28;45436;-75
2022/12/13 03:10:52;;;;;;;;;24.50;22.25;;;;;;;;5052547;28;47108;-75
2022/12/13 03:13:35;;;;;;;;;30.50;26.25;;;;;;;;5056975;28;45867;-76
2022/12/13 03:16:05;;;;;;;;;24.75;23.25;;;;;;;;5059536;28;45304;-75
2022/12/13 03:18:32;;;;;;;;;16.25;15.00;;;;;;;;5057730;28;45412;-75
2022/12/13 03:20:59;;;;;;;;;36.00;32.25;;;;;;;;5057797;28;47535;-75
2022/12/13 03:23:24;;;;;;;;;30.50;24.50;;;;;;;;5057824;28;45672;-75
2022/12/13 03:25:52;;;;;;;;;30.00;26.25;;;;;;;;5059417;28;45443;-75
2022/12/13 03:28:17;;;;;;;;;26.25;18.25;;;;;;;;5059155;28;45480;-76
2022/12/13 03:30:43;;;;;;;;;25.50;23.25;;;;;;;;5059092;28;45416;-75
2022/12/13 03:33:08;;;;;;;;;23.00;22.50;;;;;;;;5059164;28;45412;-75
2022/12/13 03:35:33;;;;;;;;;28.00;25.00;;;;;;;;5059180;28;45212;-75
2022/12/13 03:38:00;;;;;;;;;30.25;30.00;;;;;;;;5058706;28;45489;-75
2022/12/13 03:40:26;;;;;;;;;23.50;21.25;;;;;;;;5059103;28;45408;-75
2022/12/13 03:42:51;;;;;;;;;29.25;26.25;;;;;;;;5057584;28;46021;-75
2022/12/13 03:45:17;;;;;;;;;28.50;23.25;;;;;;;;5059159;28;45319;-75
2022/12/13 03:47:42;;;;;;;;;28.00;23.75;;;;;;;;5058790;28;45256;-75
2022/12/13 03:50:08;;;;;;;;;30.50;28.75;;;;;;;;5058816;28;45402;-75
2022/12/13 03:52:33;;;;;;;;;29.00;28.75;;;;;;;;5058980;28;45336;-75
2022/12/13 03:54:58;;;;;;;;;26.75;24.50;;;;;;;;5057774;28;45321;-75
2022/12/13 03:57:23;;;;;;;;;32.25;26.25;;;;;;;;5057254;28;46435;-75
2022/12/13 03:59:49;;;;;;;;;34.75;31.25;;;;;;;;5057389;28;48074;-75
2022/12/13 04:02:14;;;;;;;;;25.50;25.50;;;;;;;;5058789;28;45244;-75
2022/12/13 04:04:39;;;;;;;;;33.25;27.25;;;;;;;;5057714;28;45355;-75
2022/12/13 04:07:04;;;;;;;;;27.75;27.75;;;;;;;;5057237;28;46333;-75
2022/12/13 04:09:32;;;;;;;;;32.50;25.75;;;;;;;;5057299;28;47270;-76
2022/12/13 04:14:41;;;;;;;;;25.50;25.25;;;;;;;;5058730;28;45346;-75
2022/12/13 04:17:06;;;;;;;;;32.00;30.75;;;;;;;;5058190;28;45322;-75
2022/12/13 04:19:31;;;;;;;;;32.75;29.50;;;;;;;;5058239;28;45469;-76
2022/12/13 04:21:56;;;;;;;;;27.75;24.00;;;;;;;;5058576;28;45297;-75
2022/12/13 04:24:22;;;;;;;;;29.50;25.75;;;;;;;;5058957;28;45188;-75
2022/12/13 04:26:47;;;;;;;;;24.25;23.75;;;;;;;;5061850;28;45596;-74
2022/12/13 04:29:12;;;;;;;;;26.25;25.50;;;;;;;;5061937;28;45283;-75
2022/12/13 04:31:37;;;;;;;;;28.50;28.50;;;;;;;;5061892;28;45332;-75
2022/12/13 04:34:03;;;;;;;;;29.00;27.00;;;;;;;;5062052;28;45252;-75
2022/12/13 04:36:28;;;;;;;;;32.50;32.50;;;;;;;;5060398;28;47236;-75
2022/12/13 04:38:54;;;;;;;;;33.50;29.00;;;;;;;;5061731;28;45423;-75
2022/12/13 04:41:19;;;;;;;;;28.00;27.50;;;;;;;;5061523;28;45315;-75
2022/12/13 04:43:49;;;;;;;;;31.75;28.50;;;;;;;;5061954;28;45485;-75
2022/12/13 04:46:14;;;;;;;;;31.25;30.50;;;;;;;;5060375;28;47278;-76
2022/12/13 04:48:39;;;;;;;;;29.25;28.75;;;;;;;;5061489;28;45351;-75
2022/12/13 04:51:04;;;;;;;;;31.75;29.75;;;;;;;;5061847;28;45390;-75
2022/12/13 04:53:30;;;;;;;;;32.25;29.25;;;;;;;;5060117;28;45398;-75
2022/12/13 04:55:55;;;;;;;;;34.75;31.75;;;;;;;;5060220;28;46169;-75
2022/12/13 04:58:20;;;;;;;;;32.75;30.25;;;;;;;;5061278;28;45354;-75
2022/12/13 05:00:46;;;;;;;;;34.75;28.50;;;;;;;;5061652;28;45271;-75
2022/12/13 05:03:11;;;;;;;;;33.00;29.00;;;;;;;;5061766;28;45492;-75
2022/12/13 05:05:39;;;;;;;;;34.50;33.50;;;;;;;;5061142;28;45342;-75
2022/12/13 05:08:05;;;;;;;;;32.50;28.50;;;;;;;;5060059;28;47452;-75
2022/12/13 05:10:30;;;;;;;;;38.25;34.00;;;;;;;;5061078;28;45296;-75
2022/12/13 05:12:55;;;;;;;;;36.25;29.25;;;;;;;;5061403;28;45263;-75
2022/12/13 05:15:20;;;;;;;;;34.75;33.00;;;;;;;;5059942;28;46214;-75
2022/12/13 05:17:45;;;;;;;;;36.00;32.75;;;;;;;;5060993;28;45475;-75
2022/12/13 05:20:11;;;;;;;;;41.75;38.50;;;;;;;;5061134;28;45354;-75
2022/12/13 05:22:36;;;;;;;;;28.75;28.75;;;;;;;;5061052;28;45283;-75
2022/12/13 05:25:02;;;;;;;;;37.75;31.75;;;;;;;;5061237;28;45236;-74
2022/12/13 05:27:27;;;;;;;;;33.00;30.50;;;;;;;;5060806;28;45562;-75
2022/12/13 05:29:56;;;;;;;;;34.00;30.00;;;;;;;;5055347;28;45509;-76
2022/12/13 05:32:21;;;;;;;;;31.75;27.75;;;;;;;;5050796;28;45406;-75
2022/12/13 05:34:46;;;;;;;;;32.75;28.75;;;;;;;;5060570;28;45402;-74
2022/12/13 05:37:11;;;;;;;;;36.50;27.50;;;;;;;;5060349;28;45271;-75
2022/12/13 05:39:36;;;;;;;;;32.50;30.00;;;;;;;;5060601;28;45387;-75
2022/12/13 05:42:02;;;;;;;;;32.00;26.00;;;;;;;;5061017;28;45240;-75
2022/12/13 05:44:27;;;;;;;;;29.00;26.00;;;;;;;;5060700;28;45482;-75
2022/12/13 05:46:52;;;;;;;;;32.75;27.25;;;;;;;;5060609;28;46100;-75
2022/12/13 05:49:17;;;;;;;;;29.00;25.75;;;;;;;;5059447;28;45275;-75
2022/12/13 05:51:42;;;;;;;;;40.25;33.25;;;;;;;;5060894;28;45247;-75
2022/12/13 05:54:07;;;;;;;;;31.75;27.25;;;;;;;;5059228;28;46001;-74
2022/12/13 05:56:33;;;;;;;;;35.75;28.25;;;;;;;;5060412;28;45204;-75
2022/12/13 05:58:59;;;;;;;;;43.25;30.25;;;;;;;;5059306;28;45882;-75
2022/12/13 06:01:24;;;;;;;;;35.25;28.00;;;;;;;;5059503;28;45235;-75
2022/12/13 06:03:49;;;;;;;;;36.50;32.25;;;;;;;;5060450;28;45259;-74
2022/12/13 06:06:16;;;;;;;;;35.00;34.00;;;;;;;;5060564;28;45478;-75
2022/12/13 06:08:42;;;;;;;;;36.00;28.75;;;;;;;;5060180;28;45271;-75
2022/12/13 06:11:07;;;;;;;;;33.75;31.50;;;;;;;;5060419;28;45378;-75
2022/12/13 06:13:33;;;;;;;;;39.00;36.00;;;;;;;;5058858;28;46103;-75
2022/12/13 06:16:02;;;;;;;;;30.00;28.75;;;;;;;;5060343;28;46219;-74
2022/12/13 06:18:29;;;;;;;;;38.00;31.75;;;;;;;;5060026;28;45451;-75
2022/12/13 06:20:55;;;;;;;;;23.00;22.25;;;;;;;;5058757;28;45438;-75
2022/12/13 06:23:20;;;;;;;;;36.75;31.75;;;;;;;;5058652;28;46144;-75
2022/12/13 06:25:45;;;;;;;;;34.00;32.00;;;;;;;;5059982;28;45342;-75
2022/12/13 06:28:10;;;;;;;;;38.00;33.00;;;;;;;;5057592;28;45527;-75
2022/12/13 06:30:35;;;;;;;;;39.00;32.50;;;;;;;;5057261;28;45628;-75
2022/12/13 06:33:01;;;;;;;;;36.75;31.75;;;;;;;;5058383;28;47087;-75
2022/12/13 06:35:26;;;;;;;;;22.75;20.75;;;;;;;;5059350;28;45279;-75
2022/12/13 06:37:51;;;;;;;;;37.25;36.50;;;;;;;;5060072;28;45383;-75
2022/12/13 06:40:16;;;;;;;;;34.50;32.00;;;;;;;;5061435;28;45346;-75
2022/12/13 06:42:42;;;;;;;;;33.00;30.25;;;;;;;;5058927;28;46068;-75
2022/12/13 06:45:07;;;;;;;;;38.75;38.50;;;;;;;;5059988;28;45299;-74
2022/12/13 06:47:32;;;;;;;;;37.25;35.25;;;;;;;;5058620;28;45455;-74
2022/12/13 06:49:57;;;;;;;;;39.50;31.50;;;;;;;;5058740;28;45584;-74
2022/12/13 06:52:22;;;;;;;;;40.00;36.00;;;;;;;;5059490;28;45271;-75
2022/12/13 06:54:48;;;;;;;;;40.25;36.50;;;;;;;;5059788;28;45339;-75
2022/12/13 06:57:13;;;;;;;;;39.75;30.25;;;;;;;;5059543;28;45578;-75
2022/12/13 06:59:38;;;;;;;;;37.75;31.00;;;;;;;;5059693;28;45349;-75
2022/12/13 07:02:03;;;;;;;;;32.75;32.25;;;;;;;;5059697;28;45500;-75
2022/12/13 07:04:28;;;;;;;;;45.75;37.00;;;;;;;;5059499;28;45312;-75
2022/12/13 07:06:54;;;;;;;;;35.25;33.00;;;;;;;;5059683;28;45337;-75
2022/12/13 07:09:19;;;;;;;;;38.50;36.00;;;;;;;;5059407;28;45282;-75
2022/12/13 07:11:44;;;;;;;;;49.50;43.00;;;;;;;;5048743;28;46749;-75
2022/12/13 07:14:09;;;;;;;;;38.50;35.75;;;;;;;;5058675;28;46645;-75
2022/12/13 07:16:34;;;;;;;;;45.25;38.75;;;;;;;;5059341;28;45355;-75
2022/12/13 07:19:00;;;;;;;;;43.50;39.50;;;;;;;;5059080;28;45252;-75
2022/12/13 07:21:26;;;;;;;;;45.00;43.50;;;;;;;;5059285;28;45329;-75
2022/12/13 07:23:51;;;;;;;;;48.50;42.50;;;;;;;;5059203;28;45342;-75
2022/12/13 07:26:16;;;;;;;;;41.50;39.50;;;;;;;;5058907;28;45391;-75
2022/12/13 07:28:42;;;;;;;;;36.75;35.75;;;;;;;;5059561;28;45321;-75
2022/12/13 07:31:08;;;;;;;;;43.75;39.00;;;;;;;;5058965;28;45271;-75
2022/12/13 07:33:33;;;;;;;;;42.75;39.00;;;;;;;;5057583;28;48577;-75
2022/12/13 07:36:03;;;;;;;;;41.25;39.50;;;;;;;;5059198;28;45232;-75
2022/12/13 07:38:28;;;;;;;;;45.50;40.75;;;;;;;;5058844;28;45430;-75
2022/12/13 07:40:55;;;;;;;;;46.25;43.25;;;;;;;;5059163;28;45448;-76
2022/12/13 07:43:20;;;;;;;;;49.25;40.25;;;;;;;;5055006;28;45435;-75
2022/12/13 07:45:45;;;;;;;;;57.00;45.75;;;;;;;;5058834;28;45343;-75
2022/12/13 07:48:10;;;;;;;;;38.75;34.00;;;;;;;;5057813;28;45432;-76
2022/12/13 07:50:36;;;;;;;;;42.50;39.75;;;;;;;;5058881;28;45414;-76
2022/12/13 07:53:03;;;;;;;;;39.25;35.75;;;;;;;;5058738;28;45980;-76
2022/12/13 07:55:28;;;;;;;;;45.75;43.00;;;;;;;;5057666;28;45941;-77
2022/12/13 07:57:53;;;;;;;;;51.50;45.00;;;;;;;;5057276;28;45303;-76
2022/12/13 08:00:19;;;;;;;;;51.75;44.25;;;;;;;;5062086;28;45184;-76
2022/12/13 08:02:44;;;;;;;;;47.00;42.25;;;;;;;;5060943;28;47234;-76
2022/12/13 08:05:09;;;;;;;;;51.50;44.25;;;;;;;;5050955;28;45220;-76
2022/12/13 08:07:34;;;;;;;;;54.75;46.25;;;;;;;;5061066;28;45371;-76
2022/12/13 08:10:00;;;;;;;;;47.25;40.00;;;;;;;;5061974;28;45274;-76
2022/12/13 08:12:25;;;;;;;;;47.00;42.25;;;;;;;;5060536;28;48014;-76
2022/12/13 08:14:50;;;;;;;;;43.75;36.00;;;;;;;;5060881;28;45297;-78
2022/12/13 08:17:16;;;;;;;;;52.25;44.25;;;;;;;;5062118;28;45315;-77
2022/12/13 08:19:41;;;;;;;;;51.00;43.00;;;;;;;;5060658;28;47178;-76
2022/12/13 08:22:06;;;;;;;;;53.75;47.50;;;;;;;;5060805;28;46917;-77
2022/12/13 08:24:31;;;;;;;;;55.50;48.25;;;;;;;;5062119;28;45342;-76
2022/12/13 08:26:59;;;;;;;;;42.00;39.25;;;;;;;;5060904;28;45317;-75
2022/12/13 08:29:25;;;;;;;;;50.75;43.00;;;;;;;;5062261;28;45393;-75
2022/12/13 08:31:50;;;;;;;;;53.50;44.00;;;;;;;;5061880;28;46663;-77
2022/12/13 08:34:15;;;;;;;;;51.25;45.50;;;;;;;;5062046;28;45310;-77
2022/12/13 08:36:40;;;;;;;;;50.00;43.50;;;;;;;;5061712;28;45311;-77
2022/12/13 08:39:05;;;;;;;;;51.25;42.50;;;;;;;;5061618;28;45381;-78
2022/12/13 08:41:31;;;;;;;;;42.50;39.75;;;;;;;;5061434;28;45473;-78
2022/12/13 08:43:56;;;;;;;;;40.00;37.00;;;;;;;;5061752;28;45291;-77
2022/12/13 08:46:21;;;;;;;;;52.50;44.50;;;;;;;;5061790;28;45276;-77
2022/12/13 08:48:46;;;;;;;;;46.75;43.75;;;;;;;;5061797;28;45336;-78
2022/12/13 08:51:13;;;;;;;;;46.00;42.50;;;;;;;;5057472;28;46204;-76
2022/12/13 08:53:39;;;;;;;;;53.75;45.50;;;;;;;;5059050;28;45231;-78
2022/12/13 08:56:06;;;;;;;;;45.25;43.00;;;;;;;;5061684;28;45228;-78
2022/12/13 08:58:32;;;;;;;;;114.00;107.00;;;;;;;;5061326;28;45318;-80
2022/12/13 09:00:57;;;;;;;;;49.00;43.00;;;;;;;;5060328;28;47036;-78
2022/12/13 09:03:22;;;;;;;;;53.50;45.50;;;;;;;;5061525;28;45369;-77
2022/12/13 09:05:47;;;;;;;;;60.25;48.50;;;;;;;;5061634;28;45316;-77
2022/12/13 09:08:13;;;;;;;;;51.75;45.50;;;;;;;;5059903;28;47240;-77
2022/12/13 09:10:38;;;;;;;;;46.25;42.50;;;;;;;;5060039;28;45579;-78
2022/12/13 09:13:03;;;;;;;;;59.00;49.50;;;;;;;;5061056;28;45303;-77
2022/12/13 09:15:32;;;;;;;;;46.25;43.25;;;;;;;;5061511;28;45336;-77
2022/12/13 09:17:57;;;;;;;;;50.25;44.25;;;;;;;;5061055;28;45604;-77
2022/12/13 09:20:23;;;;;;;;;49.50;40.50;;;;;;;;5061183;28;45345;-77
2022/12/13 09:22:49;;;;;;;;;55.25;44.25;;;;;;;;5060997;28;45299;-75
2022/12/13 09:25:14;;;;;;;;;58.50;48.25;;;;;;;;5060092;28;45287;-74
2022/12/13 09:27:39;;;;;;;;;53.25;45.25;;;;;;;;5060851;28;45346;-73
2022/12/13 09:30:06;;;;;;;;;40.00;40.00;;;;;;;;5061117;28;46423;-74
2022/12/13 09:32:32;;;;;;;;;51.75;44.25;;;;;;;;5059765;28;45315;-73
2022/12/13 09:34:57;;;;;;;;;57.25;47.00;;;;;;;;5060822;28;45457;-73
2022/12/13 09:37:23;;;;;;;;;43.75;40.00;;;;;;;;5059466;28;46913;-73
2022/12/13 09:39:48;;;;;;;;;51.25;45.00;;;;;;;;5059720;28;46027;-74
2022/12/13 09:42:21;;;;;;;;;49.75;43.25;;;;;;;;5060798;28;45457;-73
2022/12/13 09:45:05;;;;;;;;;52.00;44.00;;;;;;;;5051699;28;45972;-73
2022/12/13 09:47:34;;;;;;;;;49.50;44.00;;;;;;;;5059101;28;45326;-75
2022/12/13 09:50:03;;;;;;;;;40.00;38.75;;;;;;;;5059421;28;47277;-74
2022/12/13 09:52:35;;;;;;;;;50.25;43.25;;;;;;;;5060172;28;45384;-74
2022/12/13 09:55:00;;;;;;;;;50.50;43.00;;;;;;;;5060763;28;45379;-74
2022/12/13 09:57:26;;;;;;;;;47.75;40.25;;;;;;;;5060269;28;45327;-73
2022/12/13 09:59:52;;;;;;;;;42.50;38.75;;;;;;;;5060615;28;45235;-73
2022/12/13 10:02:28;;;;;;;;;51.25;43.25;;;;;;;;5060372;28;45229;-73
2022/12/13 10:04:56;;;;;;;;;46.25;42.00;;;;;;;;5058098;28;45720;-74
2022/12/13 10:07:23;;;;;;;;;43.00;40.25;;;;;;;;5053434;28;45647;-74
2022/12/13 10:09:52;;;;;;;;;36.00;32.50;;;;;;;;5056730;28;45315;-74
2022/12/13 10:12:17;;;;;;;;;42.75;38.25;;;;;;;;5057872;28;45496;-74
2022/12/13 10:14:46;;;;;;;;;41.75;37.75;;;;;;;;5057530;28;45223;-74
2022/12/13 10:17:14;;;;;;;;;44.25;36.25;;;;;;;;5059231;28;45362;-74
2022/12/13 10:19:42;;;;;;;;;42.00;41.00;;;;;;;;5059152;28;45460;-74
2022/12/13 10:22:10;;;;;;;;;39.50;34.50;;;;;;;;5057955;28;46192;-73
2022/12/13 10:24:54;;;;;;;;;41.50;39.00;;;;;;;;5058668;28;45548;-74
2022/12/13 10:27:26;;;;;;;;;47.75;39.25;;;;;;;;5057318;28;47464;-74
2022/12/13 10:30:05;;;;;;;;;19.50;14.25;;;;;;;;5058550;28;46724;-74
2022/12/13 10:32:33;;;;;;;;;34.00;31.25;;;;;;;;5059651;28;45302;-75
2022/12/13 10:34:58;;;;;;;;;33.50;30.75;;;;;;;;5060045;28;45422;-75
2022/12/13 10:37:23;;;;;;;;;33.00;33.00;;;;;;;;5059597;28;45488;-75
2022/12/13 10:39:49;;;;;;;;;36.00;32.50;;;;;;;;5058139;28;47373;-74
2022/12/13 10:42:15;;;;;;;;;29.75;28.25;;;;;;;;5051815;28;45305;-73
2022/12/13 10:44:41;;;;;;;;;36.25;30.50;;;;;;;;5058003;28;45300;-73
2022/12/13 10:47:09;;;;;;;;;33.75;30.25;;;;;;;;5056500;28;45456;-73
2022/12/13 10:49:39;;;;;;;;;37.50;32.75;;;;;;;;5059588;28;46215;-73
2022/12/13 10:52:06;;;;;;;;;32.75;29.00;;;;;;;;5059694;28;45401;-73
2022/12/13 10:54:33;;;;;;;;;31.00;29.50;;;;;;;;5059327;28;45374;-73
2022/12/13 10:56:59;;;;;;;;;32.25;31.50;;;;;;;;5059324;28;45280;-73
2022/12/13 10:59:35;;;;;;;;;34.75;30.50;;;;;;;;5059230;28;45237;-74
2022/12/13 11:02:02;;;;;;;;;38.75;33.25;;;;;;;;5059116;28;45513;-74
2022/12/13 11:04:28;;;;;;;;;33.50;26.25;;;;;;;;5059335;28;45334;-73
2022/12/13 11:06:54;;;;;;;;;30.25;29.75;;;;;;;;5059443;28;45326;-73
2022/12/13 11:09:27;;;;;;;;;34.50;28.50;;;;;;;;5059369;28;45477;-73
2022/12/13 11:11:53;;;;;;;;;32.25;26.50;;;;;;;;5059487;28;45410;-74
2022/12/13 11:14:22;;;;;;;;;29.50;27.75;;;;;;;;5057849;28;45440;-74
2022/12/13 11:16:51;;;;;;;;;28.75;26.25;;;;;;;;5057670;28;46078;-73
2022/12/13 11:19:19;;;;;;;;;32.75;28.25;;;;;;;;5059019;28;45554;-73
2022/12/13 11:21:48;;;;;;;;;30.75;27.75;;;;;;;;5059318;28;45552;-74
2022/12/13 11:24:21;;;;;;;;;29.50;26.25;;;;;;;;5059267;28;45318;-73
2022/12/13 11:26:47;;;;;;;;;28.25;22.00;;;;;;;;5058888;28;45512;-73
2022/12/13 11:29:31;;;;;;;;;31.75;29.50;;;;;;;;5056619;28;45400;-74
2022/12/13 11:31:56;;;;;;;;;34.25;27.25;;;;;;;;5046680;28;45520;-74
2022/12/13 11:34:43;;;;;;;;;31.75;30.25;;;;;;;;5054269;28;45572;-75
2022/12/13 11:37:28;;;;;;;;;29.75;23.75;;;;;;;;5044985;28;45612;-76
2022/12/13 11:39:59;;;;;;;;;31.75;27.75;;;;;;;;5055961;28;46570;-74
2022/12/13 11:42:30;;;;;;;;;33.75;30.50;;;;;;;;5052725;28;45478;-73
2022/12/13 11:45:02;;;;;;;;;30.50;28.00;;;;;;;;5048600;28;45433;-73
2022/12/13 11:47:45;;;;;;;;;31.50;29.25;;;;;;;;5058387;28;45639;-73
2022/12/13 11:50:19;;;;;;;;;32.50;26.75;;;;;;;;5054165;28;46313;-74
2022/12/13 11:52:52;;;;;;;;;26.00;22.75;;;;;;;;5048499;28;45439;-75
2022/12/13 11:55:24;;;;;;;;;24.25;21.75;;;;;;;;5051250;28;45346;-75
2022/12/13 11:57:49;;;;;;;;;26.25;24.25;;;;;;;;5045209;28;46270;-73
2022/12/13 12:00:36;;;;;;;;;29.75;27.75;;;;;;;;5051622;28;47373;-74
2022/12/13 12:03:21;;;;;;;;;27.75;26.50;;;;;;;;5051450;28;45623;-74
2022/12/13 12:05:52;;;;;;;;;29.50;24.75;;;;;;;;5053822;28;45401;-74
2022/12/13 12:08:18;;;;;;;;;28.00;26.75;;;;;;;;5051524;28;45392;-74
2022/12/13 12:10:45;;;;;;;;;37.75;36.25;;;;;;;;5049552;28;45258;-75
2022/12/13 12:13:20;;;;;;;;;33.75;30.00;;;;;;;;5051962;28;45360;-74
2022/12/13 12:16:05;;;;;;;;;24.75;23.25;;;;;;;;5055725;28;45337;-74
2022/12/13 12:18:30;;;;;;;;;24.00;22.75;;;;;;;;5056111;28;46262;-74
2022/12/13 12:20:56;;;;;;;;;29.25;26.50;;;;;;;;5051607;28;46271;-73
2022/12/13 12:23:30;;;;;;;;;26.00;23.00;;;;;;;;5053866;28;45367;-74
2022/12/13 12:26:04;;;;;;;;;24.50;24.50;;;;;;;;5051208;28;45296;-74
2022/12/13 12:28:48;;;;;;;;;30.75;29.50;;;;;;;;5050543;28;45457;-74
2022/12/13 12:31:46;;;;;;;;;25.50;22.75;;;;;;;;5055327;28;48115;-73
2022/12/13 12:34:15;;;;;;;;;28.75;26.25;;;;;;;;5041604;28;45679;-74
2022/12/13 12:36:40;;;;;;;;;27.50;26.75;;;;;;;;5040867;28;45691;-75
2022/12/13 12:39:14;;;;;;;;;25.75;24.50;;;;;;;;5039664;28;45404;-74
2022/12/13 12:41:40;;;;;;;;;21.75;20.25;;;;;;;;5055973;28;46252;-74
2022/12/13 12:44:24;;;;;;;;;27.00;23.50;;;;;;;;5048577;28;45334;-74
2022/12/13 12:47:01;;;;;;;;;30.00;28.00;;;;;;;;5060156;28;45387;-74
2022/12/13 12:49:29;;;;;;;;;25.00;22.25;;;;;;;;5054570;28;45691;-74
2022/12/13 12:52:03;;;;;;;;;28.50;26.75;;;;;;;;5059170;28;48312;-74
2022/12/13 12:54:31;;;;;;;;;27.00;23.75;;;;;;;;5047956;28;45481;-74
2022/12/13 12:57:03;;;;;;;;;25.00;21.25;;;;;;;;5054020;28;45433;-74
2022/12/13 12:59:35;;;;;;;;;23.25;19.25;;;;;;;;5051188;28;45449;-74
2022/12/13 13:02:00;;;;;;;;;23.75;22.00;;;;;;;;5055736;28;45658;-73
2022/12/13 13:04:28;;;;;;;;;23.75;21.50;;;;;;;;5055275;28;45390;-74
2022/12/13 13:07:05;;;;;;;;;21.50;14.25;;;;;;;;5055893;28;45997;-74
2022/12/13 13:09:31;;;;;;;;;29.00;27.00;;;;;;;;5047640;28;46117;-74
2022/12/13 13:11:57;;;;;;;;;33.50;26.25;;;;;;;;5056212;28;45358;-73
2022/12/13 13:14:27;;;;;;;;;24.75;21.75;;;;;;;;5047429;28;45343;-74
2022/12/13 13:16:54;;;;;;;;;27.25;23.00;;;;;;;;5054729;28;45351;-74
2022/12/13 13:19:19;;;;;;;;;22.00;20.75;;;;;;;;5051904;28;45350;-74
2022/12/13 13:21:48;;;;;;;;;23.00;20.25;;;;;;;;5048028;28;45659;-74
2022/12/13 13:24:24;;;;;;;;;20.00;19.00;;;;;;;;5066504;28;45405;-75
2022/12/13 13:26:54;;;;;;;;;26.75;25.50;;;;;;;;5055358;28;45327;-73
2022/12/13 13:29:19;;;;;;;;;21.50;18.75;;;;;;;;5052923;28;46088;-75
2022/12/13 13:31:53;;;;;;;;;26.50;24.00;;;;;;;;5056499;28;45331;-73
2022/12/13 13:34:22;;;;;;;;;17.75;17.75;;;;;;;;5058932;28;45334;-73
2022/12/13 13:36:51;;;;;;;;;22.75;21.00;;;;;;;;5049773;28;45386;-74
2022/12/13 13:39:18;;;;;;;;;18.75;17.75;;;;;;;;5050091;28;45429;-74
2022/12/13 13:41:53;;;;;;;;;23.00;18.25;;;;;;;;5046982;28;46576;-74
2022/12/13 13:44:32;;;;;;;;;25.00;22.75;;;;;;;;5052193;28;45319;-73
2022/12/13 13:47:30;;;;;;;;;17.00;17.00;;;;;;;;5050407;28;45554;-74
2022/12/13 13:50:07;;;;;;;;;28.50;23.75;;;;;;;;5052023;28;47020;-73
2022/12/13 13:52:45;;;;;;;;;20.50;19.50;;;;;;;;5050510;28;47286;-73
2022/12/13 13:55:10;;;;;;;;;26.00;22.75;;;;;;;;5049791;28;45550;-74
2022/12/13 13:57:35;;;;;;;;;24.75;23.75;;;;;;;;5052402;28;45373;-73
2022/12/13 14:00:07;;;;;;;;;39.75;35.50;;;;;;;;5054091;28;45904;-73
2022/12/13 14:02:45;;;;;;;;;31.25;26.75;;;;;;;;5059178;28;45860;-73
2022/12/13 14:05:22;;;;;;;;;33.25;29.50;;;;;;;;5060394;28;45306;-73
2022/12/13 14:08:02;;;;;;;;;39.00;35.50;;;;;;;;5060534;28;45454;-73
2022/12/13 14:10:40;;;;;;;;;55.75;46.25;;;;;;;;5038405;28;45497;-74
2022/12/13 14:13:25;;;;;;;;;36.75;34.50;;;;;;;;5055041;28;46143;-73
2022/12/13 14:15:59;;;;;;;;;24.75;24.50;;;;;;;;5060125;28;45531;-73
2022/12/13 14:18:57;;;;;;;;;32.00;25.75;;;;;;;;5058587;28;45350;-73
2022/12/13 14:21:45;;;;;;;;;20.50;20.00;;;;;;;;5047355;28;45454;-73
2022/12/13 14:24:13;;;;;;;;;24.25;22.00;;;;;;;;5059962;28;46372;-73
2022/12/13 14:26:41;;;;;;;;;24.75;20.75;;;;;;;;5074011;28;45290;-73
2022/12/13 14:29:11;;;;;;;;;24.25;23.25;;;;;;;;5058609;28;45184;-73